sensor_id;sensor_type;location;lat;lon;timestamp;P1;durP1;ratioP1;P2;durP2;ratioP2
51828;SDS011;37881;48.024;8.774;2023-05-29T00:01:19;15.07;;;6.70;;
51828;SDS011;37881;48.024;8.774;2023-05-29T00:03:47;12.23;;;5.97;;
51828;SDS011;37881;48.024;8.774;2023-05-29T00:06:14;11.20;;;5.40;;
51828;SDS011;37881;48.024;8.774;2023-05-29T00:08:41;11.18;;;5.50;;
51828;SDS011;37881;48.024;8.774;2023-05-29T00:11:07;12.73;;;5.30;;
51828;SDS011;37881;48.024;8.774;2023-05-29T00:13:34;11.70;;;5.80;;
51828;SDS011;37881;48.024;8.774;2023-05-29T00:16:01;18.02;;;10.30;;
51828;SDS011;37881;48.024;8.774;2023-05-29T00:18:29;17.48;;;9.80;;
51828;SDS011;37881;48.024;8.774;2023-05-29T00:20:56;13.63;;;7.63;;
51828;SDS011;37881;48.024;8.774;2023-05-29T00:23:24;10.53;;;6.33;;
51828;SDS011;37881;48.024;8.774;2023-05-29T00:25:51;11.75;;;6.03;;
51828;SDS011;37881;48.024;8.774;2023-05-29T00:28:18;11.55;;;5.50;;
51828;SDS011;37881;48.024;8.774;2023-05-29T00:30:45;11.57;;;5.80;;
51828;SDS011;37881;48.024;8.774;2023-05-29T00:33:11;10.73;;;5.68;;
51828;SDS011;37881;48.024;8.774;2023-05-29T00:35:38;11.17;;;5.57;;
51828;SDS011;37881;48.024;8.774;2023-05-29T00:38:05;11.43;;;5.47;;
51828;SDS011;37881;48.024;8.774;2023-05-29T00:40:31;11.20;;;6.05;;
51828;SDS011;37881;48.024;8.774;2023-05-29T00:42:58;10.95;;;5.45;;
51828;SDS011;37881;48.024;8.774;2023-05-29T00:45:25;11.25;;;5.90;;
51828;SDS011;37881;48.024;8.774;2023-05-29T00:47:52;12.67;;;5.87;;
51828;SDS011;37881;48.024;8.774;2023-05-29T00:50:19;10.70;;;5.32;;
51828;SDS011;37881;48.024;8.774;2023-05-29T00:52:47;11.20;;;5.57;;
51828;SDS011;37881;48.024;8.774;2023-05-29T00:55:14;10.02;;;5.70;;
51828;SDS011;37881;48.024;8.774;2023-05-29T00:57:42;12.15;;;5.93;;
51828;SDS011;37881;48.024;8.774;2023-05-29T01:00:09;12.17;;;5.87;;
51828;SDS011;37881;48.024;8.774;2023-05-29T01:02:40;20.05;;;11.10;;
51828;SDS011;37881;48.024;8.774;2023-05-29T01:05:11;33.83;;;15.35;;
51828;SDS011;37881;48.024;8.774;2023-05-29T01:07:38;20.48;;;10.18;;
51828;SDS011;37881;48.024;8.774;2023-05-29T01:10:05;13.07;;;7.05;;
51828;SDS011;37881;48.024;8.774;2023-05-29T01:15:33;11.43;;;5.30;;
51828;SDS011;37881;48.024;8.774;2023-05-29T01:21:26;11.75;;;5.40;;
51828;SDS011;37881;48.024;8.774;2023-05-29T01:27:03;10.57;;;5.40;;
51828;SDS011;37881;48.024;8.774;2023-05-29T01:29:32;10.27;;;5.00;;
51828;SDS011;37881;48.024;8.774;2023-05-29T01:32:01;9.80;;;5.00;;
51828;SDS011;37881;48.024;8.774;2023-05-29T01:34:28;11.48;;;4.90;;
51828;SDS011;37881;48.024;8.774;2023-05-29T01:36:55;10.63;;;5.57;;
51828;SDS011;37881;48.024;8.774;2023-05-29T01:39:22;10.57;;;5.07;;
51828;SDS011;37881;48.024;8.774;2023-05-29T01:41:50;13.48;;;5.60;;
51828;SDS011;37881;48.024;8.774;2023-05-29T01:44:17;10.52;;;5.50;;
51828;SDS011;37881;48.024;8.774;2023-05-29T01:46:45;12.20;;;5.60;;
51828;SDS011;37881;48.024;8.774;2023-05-29T01:49:12;9.75;;;5.32;;
51828;SDS011;37881;48.024;8.774;2023-05-29T01:51:40;10.10;;;5.20;;
51828;SDS011;37881;48.024;8.774;2023-05-29T01:54:07;12.90;;;5.68;;
51828;SDS011;37881;48.024;8.774;2023-05-29T01:56:34;11.13;;;5.45;;
51828;SDS011;37881;48.024;8.774;2023-05-29T01:59:03;11.10;;;5.40;;
51828;SDS011;37881;48.024;8.774;2023-05-29T02:01:30;10.88;;;5.80;;
51828;SDS011;37881;48.024;8.774;2023-05-29T02:03:58;11.30;;;5.57;;
51828;SDS011;37881;48.024;8.774;2023-05-29T02:06:25;11.30;;;5.30;;
51828;SDS011;37881;48.024;8.774;2023-05-29T02:08:52;11.13;;;5.25;;
51828;SDS011;37881;48.024;8.774;2023-05-29T02:11:18;10.93;;;5.47;;
51828;SDS011;37881;48.024;8.774;2023-05-29T02:13:46;10.90;;;5.15;;
51828;SDS011;37881;48.024;8.774;2023-05-29T02:16:13;9.60;;;5.13;;
51828;SDS011;37881;48.024;8.774;2023-05-29T02:18:40;10.27;;;5.65;;
51828;SDS011;37881;48.024;8.774;2023-05-29T02:21:07;10.55;;;5.32;;
51828;SDS011;37881;48.024;8.774;2023-05-29T02:23:34;10.68;;;5.63;;
51828;SDS011;37881;48.024;8.774;2023-05-29T02:26:01;9.70;;;5.50;;
51828;SDS011;37881;48.024;8.774;2023-05-29T02:28:28;12.90;;;5.70;;
51828;SDS011;37881;48.024;8.774;2023-05-29T02:30:55;11.32;;;5.72;;
51828;SDS011;37881;48.024;8.774;2023-05-29T02:33:22;9.85;;;5.32;;
51828;SDS011;37881;48.024;8.774;2023-05-29T02:35:49;10.85;;;5.20;;
51828;SDS011;37881;48.024;8.774;2023-05-29T02:38:16;10.20;;;5.18;;
51828;SDS011;37881;48.024;8.774;2023-05-29T02:40:42;11.23;;;5.27;;
51828;SDS011;37881;48.024;8.774;2023-05-29T02:43:12;10.23;;;4.85;;
51828;SDS011;37881;48.024;8.774;2023-05-29T02:45:39;10.55;;;5.10;;
51828;SDS011;37881;48.024;8.774;2023-05-29T02:48:06;12.75;;;5.70;;
51828;SDS011;37881;48.024;8.774;2023-05-29T02:50:33;10.85;;;5.53;;
51828;SDS011;37881;48.024;8.774;2023-05-29T02:53:00;11.07;;;5.10;;
51828;SDS011;37881;48.024;8.774;2023-05-29T02:55:26;11.15;;;5.82;;
51828;SDS011;37881;48.024;8.774;2023-05-29T02:57:53;26.75;;;13.82;;
51828;SDS011;37881;48.024;8.774;2023-05-29T03:00:21;28.92;;;10.93;;
51828;SDS011;37881;48.024;8.774;2023-05-29T03:02:48;12.73;;;6.90;;
51828;SDS011;37881;48.024;8.774;2023-05-29T03:05:15;11.87;;;6.00;;
51828;SDS011;37881;48.024;8.774;2023-05-29T03:07:43;11.95;;;6.13;;
51828;SDS011;37881;48.024;8.774;2023-05-29T03:10:09;11.25;;;6.20;;
51828;SDS011;37881;48.024;8.774;2023-05-29T03:12:37;11.60;;;5.65;;
51828;SDS011;37881;48.024;8.774;2023-05-29T03:15:05;9.77;;;5.28;;
51828;SDS011;37881;48.024;8.774;2023-05-29T03:17:32;11.53;;;5.63;;
51828;SDS011;37881;48.024;8.774;2023-05-29T03:19:59;11.25;;;5.60;;
51828;SDS011;37881;48.024;8.774;2023-05-29T03:22:26;10.70;;;5.50;;
51828;SDS011;37881;48.024;8.774;2023-05-29T03:24:53;12.43;;;5.70;;
51828;SDS011;37881;48.024;8.774;2023-05-29T03:27:20;11.48;;;5.47;;
51828;SDS011;37881;48.024;8.774;2023-05-29T03:29:46;10.67;;;5.43;;
51828;SDS011;37881;48.024;8.774;2023-05-29T03:32:13;11.73;;;5.72;;
51828;SDS011;37881;48.024;8.774;2023-05-29T03:34:40;12.13;;;5.10;;
51828;SDS011;37881;48.024;8.774;2023-05-29T03:37:07;9.93;;;5.47;;
51828;SDS011;37881;48.024;8.774;2023-05-29T03:39:33;10.60;;;5.50;;
51828;SDS011;37881;48.024;8.774;2023-05-29T03:42:00;10.60;;;5.67;;
51828;SDS011;37881;48.024;8.774;2023-05-29T03:44:29;11.88;;;5.78;;
51828;SDS011;37881;48.024;8.774;2023-05-29T03:46:56;12.13;;;6.10;;
51828;SDS011;37881;48.024;8.774;2023-05-29T03:49:22;11.27;;;5.80;;
51828;SDS011;37881;48.024;8.774;2023-05-29T03:51:50;12.23;;;6.10;;
51828;SDS011;37881;48.024;8.774;2023-05-29T03:54:17;11.97;;;5.67;;
51828;SDS011;37881;48.024;8.774;2023-05-29T03:56:43;11.65;;;5.53;;
51828;SDS011;37881;48.024;8.774;2023-05-29T03:59:10;10.48;;;5.60;;
51828;SDS011;37881;48.024;8.774;2023-05-29T04:01:37;10.50;;;5.57;;
51828;SDS011;37881;48.024;8.774;2023-05-29T04:04:04;12.95;;;6.38;;
51828;SDS011;37881;48.024;8.774;2023-05-29T04:06:30;11.80;;;6.27;;
51828;SDS011;37881;48.024;8.774;2023-05-29T04:08:58;11.57;;;5.93;;
51828;SDS011;37881;48.024;8.774;2023-05-29T04:11:25;12.25;;;5.65;;
51828;SDS011;37881;48.024;8.774;2023-05-29T04:13:51;24.60;;;14.63;;
51828;SDS011;37881;48.024;8.774;2023-05-29T04:16:18;16.52;;;8.98;;
51828;SDS011;37881;48.024;8.774;2023-05-29T04:18:45;13.97;;;7.10;;
51828;SDS011;37881;48.024;8.774;2023-05-29T04:21:12;12.25;;;6.18;;
51828;SDS011;37881;48.024;8.774;2023-05-29T04:23:39;12.80;;;6.20;;
51828;SDS011;37881;48.024;8.774;2023-05-29T04:26:06;12.32;;;5.95;;
51828;SDS011;37881;48.024;8.774;2023-05-29T04:28:32;11.82;;;5.90;;
51828;SDS011;37881;48.024;8.774;2023-05-29T04:30:59;14.33;;;6.13;;
51828;SDS011;37881;48.024;8.774;2023-05-29T04:33:27;10.82;;;5.63;;
51828;SDS011;37881;48.024;8.774;2023-05-29T04:35:55;12.45;;;5.80;;
51828;SDS011;37881;48.024;8.774;2023-05-29T04:38:22;12.63;;;6.18;;
51828;SDS011;37881;48.024;8.774;2023-05-29T04:40:52;16.63;;;9.45;;
51828;SDS011;37881;48.024;8.774;2023-05-29T04:43:24;12.37;;;6.60;;
51828;SDS011;37881;48.024;8.774;2023-05-29T04:45:52;15.75;;;6.38;;
51828;SDS011;37881;48.024;8.774;2023-05-29T04:48:19;13.35;;;6.28;;
51828;SDS011;37881;48.024;8.774;2023-05-29T04:50:46;11.23;;;6.20;;
51828;SDS011;37881;48.024;8.774;2023-05-29T04:53:15;10.23;;;5.93;;
51828;SDS011;37881;48.024;8.774;2023-05-29T04:55:41;12.47;;;6.20;;
51828;SDS011;37881;48.024;8.774;2023-05-29T04:58:08;10.90;;;5.95;;
51828;SDS011;37881;48.024;8.774;2023-05-29T05:00:35;11.55;;;6.05;;
51828;SDS011;37881;48.024;8.774;2023-05-29T05:03:01;11.35;;;6.00;;
51828;SDS011;37881;48.024;8.774;2023-05-29T05:05:28;10.88;;;5.78;;
51828;SDS011;37881;48.024;8.774;2023-05-29T05:07:56;11.33;;;6.27;;
51828;SDS011;37881;48.024;8.774;2023-05-29T05:10:22;11.23;;;5.82;;
51828;SDS011;37881;48.024;8.774;2023-05-29T05:12:49;12.70;;;6.40;;
51828;SDS011;37881;48.024;8.774;2023-05-29T05:15:16;11.88;;;6.25;;
51828;SDS011;37881;48.024;8.774;2023-05-29T05:17:43;10.40;;;6.15;;
51828;SDS011;37881;48.024;8.774;2023-05-29T05:20:10;12.57;;;6.47;;
51828;SDS011;37881;48.024;8.774;2023-05-29T05:22:37;12.75;;;6.38;;
51828;SDS011;37881;48.024;8.774;2023-05-29T05:25:04;13.85;;;6.35;;
51828;SDS011;37881;48.024;8.774;2023-05-29T05:27:32;11.05;;;6.25;;
51828;SDS011;37881;48.024;8.774;2023-05-29T05:29:59;12.07;;;7.07;;
51828;SDS011;37881;48.024;8.774;2023-05-29T05:32:27;10.97;;;6.63;;
51828;SDS011;37881;48.024;8.774;2023-05-29T05:34:53;10.57;;;6.78;;
51828;SDS011;37881;48.024;8.774;2023-05-29T05:37:20;11.25;;;6.30;;
51828;SDS011;37881;48.024;8.774;2023-05-29T05:39:52;10.20;;;6.35;;
51828;SDS011;37881;48.024;8.774;2023-05-29T05:42:19;9.90;;;6.32;;
51828;SDS011;37881;48.024;8.774;2023-05-29T05:44:46;11.67;;;6.67;;
51828;SDS011;37881;48.024;8.774;2023-05-29T05:47:14;10.15;;;6.32;;
51828;SDS011;37881;48.024;8.774;2023-05-29T05:49:42;10.07;;;6.43;;
51828;SDS011;37881;48.024;8.774;2023-05-29T05:52:09;9.98;;;6.32;;
51828;SDS011;37881;48.024;8.774;2023-05-29T05:54:36;10.73;;;7.50;;
51828;SDS011;37881;48.024;8.774;2023-05-29T05:57:03;12.20;;;7.53;;
51828;SDS011;37881;48.024;8.774;2023-05-29T05:59:30;9.43;;;6.20;;
51828;SDS011;37881;48.024;8.774;2023-05-29T06:01:57;9.88;;;7.00;;
51828;SDS011;37881;48.024;8.774;2023-05-29T06:04:24;9.85;;;6.80;;
51828;SDS011;37881;48.024;8.774;2023-05-29T06:06:51;9.93;;;6.40;;
51828;SDS011;37881;48.024;8.774;2023-05-29T06:09:18;11.00;;;6.90;;
51828;SDS011;37881;48.024;8.774;2023-05-29T06:11:48;9.38;;;6.82;;
51828;SDS011;37881;48.024;8.774;2023-05-29T06:14:15;10.25;;;6.70;;
51828;SDS011;37881;48.024;8.774;2023-05-29T06:16:42;9.52;;;6.63;;
51828;SDS011;37881;48.024;8.774;2023-05-29T06:19:09;9.38;;;6.45;;
51828;SDS011;37881;48.024;8.774;2023-05-29T06:21:36;10.03;;;6.80;;
51828;SDS011;37881;48.024;8.774;2023-05-29T06:24:03;11.15;;;7.35;;
51828;SDS011;37881;48.024;8.774;2023-05-29T06:26:30;10.07;;;6.70;;
51828;SDS011;37881;48.024;8.774;2023-05-29T06:28:57;10.32;;;7.22;;
51828;SDS011;37881;48.024;8.774;2023-05-29T06:31:24;10.27;;;7.18;;
51828;SDS011;37881;48.024;8.774;2023-05-29T06:33:51;10.50;;;7.33;;
51828;SDS011;37881;48.024;8.774;2023-05-29T06:36:17;10.80;;;6.95;;
51828;SDS011;37881;48.024;8.774;2023-05-29T06:38:47;12.73;;;7.57;;
51828;SDS011;37881;48.024;8.774;2023-05-29T06:41:14;9.65;;;6.38;;
51828;SDS011;37881;48.024;8.774;2023-05-29T06:43:41;12.60;;;7.35;;
51828;SDS011;37881;48.024;8.774;2023-05-29T06:46:10;10.10;;;7.37;;
51828;SDS011;37881;48.024;8.774;2023-05-29T06:48:37;10.82;;;7.15;;
51828;SDS011;37881;48.024;8.774;2023-05-29T06:51:04;10.32;;;7.10;;
51828;SDS011;37881;48.024;8.774;2023-05-29T06:53:38;10.05;;;7.22;;
51828;SDS011;37881;48.024;8.774;2023-05-29T06:56:05;10.15;;;6.60;;
51828;SDS011;37881;48.024;8.774;2023-05-29T06:58:32;9.03;;;6.53;;
51828;SDS011;37881;48.024;8.774;2023-05-29T07:01:00;8.98;;;6.28;;
51828;SDS011;37881;48.024;8.774;2023-05-29T07:03:32;9.40;;;6.90;;
51828;SDS011;37881;48.024;8.774;2023-05-29T07:06:00;10.10;;;6.47;;
51828;SDS011;37881;48.024;8.774;2023-05-29T07:08:27;9.45;;;7.30;;
51828;SDS011;37881;48.024;8.774;2023-05-29T07:10:53;9.63;;;6.50;;
51828;SDS011;37881;48.024;8.774;2023-05-29T07:13:21;8.98;;;6.15;;
51828;SDS011;37881;48.024;8.774;2023-05-29T07:15:48;9.48;;;6.03;;
51828;SDS011;37881;48.024;8.774;2023-05-29T07:18:15;8.40;;;5.85;;
51828;SDS011;37881;48.024;8.774;2023-05-29T07:20:41;11.13;;;6.00;;
51828;SDS011;37881;48.024;8.774;2023-05-29T07:23:08;11.03;;;6.17;;
51828;SDS011;37881;48.024;8.774;2023-05-29T07:25:35;8.35;;;5.70;;
51828;SDS011;37881;48.024;8.774;2023-05-29T07:28:02;9.20;;;5.60;;
51828;SDS011;37881;48.024;8.774;2023-05-29T07:30:46;7.75;;;5.20;;
51828;SDS011;37881;48.024;8.774;2023-05-29T07:33:13;8.20;;;5.40;;
51828;SDS011;37881;48.024;8.774;2023-05-29T07:35:39;7.53;;;5.23;;
51828;SDS011;37881;48.024;8.774;2023-05-29T07:38:07;8.15;;;6.20;;
51828;SDS011;37881;48.024;8.774;2023-05-29T07:40:33;7.07;;;5.30;;
51828;SDS011;37881;48.024;8.774;2023-05-29T07:43:00;10.05;;;4.97;;
51828;SDS011;37881;48.024;8.774;2023-05-29T07:45:27;9.35;;;4.97;;
51828;SDS011;37881;48.024;8.774;2023-05-29T07:47:53;7.40;;;5.00;;
51828;SDS011;37881;48.024;8.774;2023-05-29T07:50:21;7.55;;;4.68;;
51828;SDS011;37881;48.024;8.774;2023-05-29T07:52:47;9.30;;;4.90;;
51828;SDS011;37881;48.024;8.774;2023-05-29T07:55:14;6.60;;;4.80;;
51828;SDS011;37881;48.024;8.774;2023-05-29T07:57:41;7.68;;;4.75;;
51828;SDS011;37881;48.024;8.774;2023-05-29T08:00:08;7.43;;;4.73;;
51828;SDS011;37881;48.024;8.774;2023-05-29T08:02:39;7.22;;;5.10;;
51828;SDS011;37881;48.024;8.774;2023-05-29T08:05:06;6.82;;;4.53;;
51828;SDS011;37881;48.024;8.774;2023-05-29T08:07:35;7.53;;;5.05;;
51828;SDS011;37881;48.024;8.774;2023-05-29T08:10:02;7.40;;;4.60;;
51828;SDS011;37881;48.024;8.774;2023-05-29T08:12:31;7.43;;;4.83;;
51828;SDS011;37881;48.024;8.774;2023-05-29T08:15:03;7.65;;;4.63;;
51828;SDS011;37881;48.024;8.774;2023-05-29T08:17:30;7.20;;;4.97;;
51828;SDS011;37881;48.024;8.774;2023-05-29T08:19:57;8.98;;;4.82;;
51828;SDS011;37881;48.024;8.774;2023-05-29T08:22:27;7.55;;;5.13;;
51828;SDS011;37881;48.024;8.774;2023-05-29T08:24:56;8.17;;;5.10;;
51828;SDS011;37881;48.024;8.774;2023-05-29T08:27:22;10.38;;;4.75;;
51828;SDS011;37881;48.024;8.774;2023-05-29T08:29:49;7.25;;;4.72;;
51828;SDS011;37881;48.024;8.774;2023-05-29T08:32:16;7.05;;;4.60;;
51828;SDS011;37881;48.024;8.774;2023-05-29T08:34:43;6.88;;;4.65;;
51828;SDS011;37881;48.024;8.774;2023-05-29T08:37:12;6.77;;;4.50;;
51828;SDS011;37881;48.024;8.774;2023-05-29T08:39:39;9.25;;;4.93;;
51828;SDS011;37881;48.024;8.774;2023-05-29T08:42:20;9.27;;;5.22;;
51828;SDS011;37881;48.024;8.774;2023-05-29T08:44:51;8.73;;;4.90;;
51828;SDS011;37881;48.024;8.774;2023-05-29T08:47:22;8.50;;;4.80;;
51828;SDS011;37881;48.024;8.774;2023-05-29T08:49:53;9.07;;;5.07;;
51828;SDS011;37881;48.024;8.774;2023-05-29T08:52:24;19.00;;;15.95;;
51828;SDS011;37881;48.024;8.774;2023-05-29T08:54:54;8.18;;;5.03;;
51828;SDS011;37881;48.024;8.774;2023-05-29T08:57:21;7.53;;;5.28;;
51828;SDS011;37881;48.024;8.774;2023-05-29T08:59:50;7.47;;;5.13;;
51828;SDS011;37881;48.024;8.774;2023-05-29T09:02:18;7.07;;;5.07;;
51828;SDS011;37881;48.024;8.774;2023-05-29T09:04:46;8.15;;;5.10;;
51828;SDS011;37881;48.024;8.774;2023-05-29T09:07:16;7.97;;;5.10;;
51828;SDS011;37881;48.024;8.774;2023-05-29T09:09:48;6.72;;;4.90;;
51828;SDS011;37881;48.024;8.774;2023-05-29T09:12:15;7.70;;;4.82;;
51828;SDS011;37881;48.024;8.774;2023-05-29T09:14:45;7.10;;;4.60;;
51828;SDS011;37881;48.024;8.774;2023-05-29T09:17:13;9.52;;;5.35;;
51828;SDS011;37881;48.024;8.774;2023-05-29T09:19:41;7.03;;;4.90;;
51828;SDS011;37881;48.024;8.774;2023-05-29T09:22:09;6.22;;;4.63;;
51828;SDS011;37881;48.024;8.774;2023-05-29T09:24:42;7.82;;;4.80;;
51828;SDS011;37881;48.024;8.774;2023-05-29T09:27:12;6.60;;;4.60;;
51828;SDS011;37881;48.024;8.774;2023-05-29T09:29:39;8.27;;;5.03;;
51828;SDS011;37881;48.024;8.774;2023-05-29T09:32:12;7.07;;;4.93;;
51828;SDS011;37881;48.024;8.774;2023-05-29T09:34:41;7.13;;;4.97;;
51828;SDS011;37881;48.024;8.774;2023-05-29T09:37:09;9.63;;;4.75;;
51828;SDS011;37881;48.024;8.774;2023-05-29T09:39:49;8.77;;;5.30;;
51828;SDS011;37881;48.024;8.774;2023-05-29T09:42:18;7.63;;;4.80;;
51828;SDS011;37881;48.024;8.774;2023-05-29T09:44:45;7.47;;;4.90;;
51828;SDS011;37881;48.024;8.774;2023-05-29T09:47:16;9.05;;;4.95;;
51828;SDS011;37881;48.024;8.774;2023-05-29T09:49:44;7.22;;;4.80;;
51828;SDS011;37881;48.024;8.774;2023-05-29T09:52:13;7.37;;;4.73;;
51828;SDS011;37881;48.024;8.774;2023-05-29T09:54:43;7.43;;;4.85;;
51828;SDS011;37881;48.024;8.774;2023-05-29T09:57:14;8.07;;;4.95;;
51828;SDS011;37881;48.024;8.774;2023-05-29T09:59:43;9.13;;;4.78;;
51828;SDS011;37881;48.024;8.774;2023-05-29T10:02:18;8.98;;;4.85;;
51828;SDS011;37881;48.024;8.774;2023-05-29T10:04:45;7.27;;;4.80;;
51828;SDS011;37881;48.024;8.774;2023-05-29T10:07:18;8.07;;;5.20;;
51828;SDS011;37881;48.024;8.774;2023-05-29T10:09:52;7.57;;;4.68;;
51828;SDS011;37881;48.024;8.774;2023-05-29T10:12:21;7.82;;;4.68;;
51828;SDS011;37881;48.024;8.774;2023-05-29T10:14:49;6.65;;;4.75;;
51828;SDS011;37881;48.024;8.774;2023-05-29T10:17:17;7.60;;;4.90;;
51828;SDS011;37881;48.024;8.774;2023-05-29T10:19:50;7.55;;;4.70;;
51828;SDS011;37881;48.024;8.774;2023-05-29T10:22:19;7.95;;;4.93;;
51828;SDS011;37881;48.024;8.774;2023-05-29T10:24:48;7.10;;;4.82;;
51828;SDS011;37881;48.024;8.774;2023-05-29T10:27:17;7.53;;;4.75;;
51828;SDS011;37881;48.024;8.774;2023-05-29T10:29:49;9.23;;;5.17;;
51828;SDS011;37881;48.024;8.774;2023-05-29T10:35:06;7.45;;;5.10;;
51828;SDS011;37881;48.024;8.774;2023-05-29T10:37:42;7.05;;;5.13;;
51828;SDS011;37881;48.024;8.774;2023-05-29T10:40:14;8.07;;;5.65;;
51828;SDS011;37881;48.024;8.774;2023-05-29T10:50:47;9.30;;;4.90;;
51828;SDS011;37881;48.024;8.774;2023-05-29T10:53:15;8.43;;;4.95;;
51828;SDS011;37881;48.024;8.774;2023-05-29T10:55:44;8.60;;;5.10;;
51828;SDS011;37881;48.024;8.774;2023-05-29T10:58:12;7.45;;;4.72;;
51828;SDS011;37881;48.024;8.774;2023-05-29T11:00:44;7.60;;;4.90;;
51828;SDS011;37881;48.024;8.774;2023-05-29T11:03:22;7.47;;;4.93;;
51828;SDS011;37881;48.024;8.774;2023-05-29T11:06:01;7.30;;;4.65;;
51828;SDS011;37881;48.024;8.774;2023-05-29T11:08:47;8.57;;;4.93;;
51828;SDS011;37881;48.024;8.774;2023-05-29T11:13:57;7.40;;;4.70;;
51828;SDS011;37881;48.024;8.774;2023-05-29T11:18:56;9.20;;;3.95;;
51828;SDS011;37881;48.024;8.774;2023-05-29T11:24:23;7.18;;;3.75;;
51828;SDS011;37881;48.024;8.774;2023-05-29T11:26:52;5.70;;;3.70;;
51828;SDS011;37881;48.024;8.774;2023-05-29T11:29:23;7.03;;;3.80;;
51828;SDS011;37881;48.024;8.774;2023-05-29T11:31:55;6.30;;;4.10;;
51828;SDS011;37881;48.024;8.774;2023-05-29T11:34:29;7.00;;;3.77;;
51828;SDS011;37881;48.024;8.774;2023-05-29T11:36:58;6.80;;;4.05;;
51828;SDS011;37881;48.024;8.774;2023-05-29T11:39:26;7.88;;;4.28;;
51828;SDS011;37881;48.024;8.774;2023-05-29T11:41:53;7.53;;;4.05;;
51828;SDS011;37881;48.024;8.774;2023-05-29T11:44:24;7.30;;;4.10;;
51828;SDS011;37881;48.024;8.774;2023-05-29T11:49:33;8.25;;;4.30;;
51828;SDS011;37881;48.024;8.774;2023-05-29T11:54:40;6.82;;;3.92;;
51828;SDS011;37881;48.024;8.774;2023-05-29T11:57:18;8.93;;;4.03;;
51828;SDS011;37881;48.024;8.774;2023-05-29T11:59:46;7.53;;;4.00;;
51828;SDS011;37881;48.024;8.774;2023-05-29T12:02:14;6.43;;;4.03;;
51828;SDS011;37881;48.024;8.774;2023-05-29T12:04:41;6.55;;;4.20;;
51828;SDS011;37881;48.024;8.774;2023-05-29T12:07:19;7.47;;;4.07;;
51828;SDS011;37881;48.024;8.774;2023-05-29T12:09:46;7.47;;;4.30;;
51828;SDS011;37881;48.024;8.774;2023-05-29T12:12:15;7.93;;;4.10;;
51828;SDS011;37881;48.024;8.774;2023-05-29T12:14:42;7.32;;;3.92;;
51828;SDS011;37881;48.024;8.774;2023-05-29T12:17:08;6.40;;;3.72;;
51828;SDS011;37881;48.024;8.774;2023-05-29T12:19:35;7.30;;;4.32;;
51828;SDS011;37881;48.024;8.774;2023-05-29T12:22:02;7.07;;;4.15;;
51828;SDS011;37881;48.024;8.774;2023-05-29T12:24:29;6.97;;;3.87;;
51828;SDS011;37881;48.024;8.774;2023-05-29T12:27:08;7.95;;;4.20;;
51828;SDS011;37881;48.024;8.774;2023-05-29T12:29:35;7.05;;;4.43;;
51828;SDS011;37881;48.024;8.774;2023-05-29T12:32:02;6.85;;;4.30;;
51828;SDS011;37881;48.024;8.774;2023-05-29T12:34:35;9.13;;;4.20;;
51828;SDS011;37881;48.024;8.774;2023-05-29T12:37:09;8.27;;;4.33;;
51828;SDS011;37881;48.024;8.774;2023-05-29T12:39:40;8.77;;;4.32;;
51828;SDS011;37881;48.024;8.774;2023-05-29T12:42:07;8.07;;;4.50;;
51828;SDS011;37881;48.024;8.774;2023-05-29T12:44:34;7.95;;;4.30;;
51828;SDS011;37881;48.024;8.774;2023-05-29T12:47:03;6.57;;;4.00;;
51828;SDS011;37881;48.024;8.774;2023-05-29T12:49:30;6.53;;;4.23;;
51828;SDS011;37881;48.024;8.774;2023-05-29T12:52:05;8.07;;;4.40;;
51828;SDS011;37881;48.024;8.774;2023-05-29T12:54:38;6.63;;;4.07;;
51828;SDS011;37881;48.024;8.774;2023-05-29T12:57:05;6.40;;;4.00;;
51828;SDS011;37881;48.024;8.774;2023-05-29T12:59:32;7.82;;;4.28;;
51828;SDS011;37881;48.024;8.774;2023-05-29T13:01:59;7.53;;;4.20;;
51828;SDS011;37881;48.024;8.774;2023-05-29T13:04:26;8.75;;;4.30;;
51828;SDS011;37881;48.024;8.774;2023-05-29T13:06:52;7.90;;;4.07;;
51828;SDS011;37881;48.024;8.774;2023-05-29T13:09:19;6.63;;;4.13;;
51828;SDS011;37881;48.024;8.774;2023-05-29T13:11:46;7.93;;;3.78;;
51828;SDS011;37881;48.024;8.774;2023-05-29T13:14:12;6.27;;;3.87;;
51828;SDS011;37881;48.024;8.774;2023-05-29T13:16:39;7.20;;;3.92;;
51828;SDS011;37881;48.024;8.774;2023-05-29T13:19:06;6.50;;;3.80;;
51828;SDS011;37881;48.024;8.774;2023-05-29T13:21:33;6.15;;;4.05;;
51828;SDS011;37881;48.024;8.774;2023-05-29T13:24:00;8.98;;;4.57;;
51828;SDS011;37881;48.024;8.774;2023-05-29T13:26:26;7.87;;;4.27;;
51828;SDS011;37881;48.024;8.774;2023-05-29T13:28:53;6.72;;;4.10;;
51828;SDS011;37881;48.024;8.774;2023-05-29T13:31:20;6.70;;;3.90;;
51828;SDS011;37881;48.024;8.774;2023-05-29T13:33:47;7.47;;;4.00;;
51828;SDS011;37881;48.024;8.774;2023-05-29T13:36:14;5.85;;;3.70;;
51828;SDS011;37881;48.024;8.774;2023-05-29T13:38:41;7.87;;;4.00;;
51828;SDS011;37881;48.024;8.774;2023-05-29T13:41:08;8.95;;;4.32;;
51828;SDS011;37881;48.024;8.774;2023-05-29T13:43:34;6.38;;;4.25;;
51828;SDS011;37881;48.024;8.774;2023-05-29T13:46:10;8.25;;;4.38;;
51828;SDS011;37881;48.024;8.774;2023-05-29T13:48:38;7.80;;;3.92;;
51828;SDS011;37881;48.024;8.774;2023-05-29T13:51:05;7.83;;;4.20;;
51828;SDS011;37881;48.024;8.774;2023-05-29T13:53:32;9.38;;;4.35;;
51828;SDS011;37881;48.024;8.774;2023-05-29T13:55:59;6.40;;;4.20;;
51828;SDS011;37881;48.024;8.774;2023-05-29T13:58:26;8.68;;;4.35;;
51828;SDS011;37881;48.024;8.774;2023-05-29T14:00:52;7.65;;;4.40;;
51828;SDS011;37881;48.024;8.774;2023-05-29T14:03:19;7.90;;;4.50;;
51828;SDS011;37881;48.024;8.774;2023-05-29T14:05:48;7.20;;;4.30;;
51828;SDS011;37881;48.024;8.774;2023-05-29T14:08:15;7.47;;;4.60;;
51828;SDS011;37881;48.024;8.774;2023-05-29T14:10:41;7.03;;;4.20;;
51828;SDS011;37881;48.024;8.774;2023-05-29T14:13:08;8.07;;;4.78;;
51828;SDS011;37881;48.024;8.774;2023-05-29T14:15:35;6.70;;;4.50;;
51828;SDS011;37881;48.024;8.774;2023-05-29T14:18:06;7.38;;;4.50;;
51828;SDS011;37881;48.024;8.774;2023-05-29T14:20:34;6.43;;;4.10;;
51828;SDS011;37881;48.024;8.774;2023-05-29T14:23:02;8.15;;;5.10;;
51828;SDS011;37881;48.024;8.774;2023-05-29T14:25:28;7.72;;;4.50;;
51828;SDS011;37881;48.024;8.774;2023-05-29T14:27:55;7.00;;;4.33;;
51828;SDS011;37881;48.024;8.774;2023-05-29T14:30:22;8.10;;;4.20;;
51828;SDS011;37881;48.024;8.774;2023-05-29T14:32:49;7.80;;;4.07;;
51828;SDS011;37881;48.024;8.774;2023-05-29T14:35:16;6.75;;;3.97;;
51828;SDS011;37881;48.024;8.774;2023-05-29T14:37:43;6.55;;;4.40;;
51828;SDS011;37881;48.024;8.774;2023-05-29T14:40:09;6.80;;;4.00;;
51828;SDS011;37881;48.024;8.774;2023-05-29T14:42:36;7.40;;;4.20;;
51828;SDS011;37881;48.024;8.774;2023-05-29T14:45:03;7.75;;;4.10;;
51828;SDS011;37881;48.024;8.774;2023-05-29T14:47:30;7.50;;;4.35;;
51828;SDS011;37881;48.024;8.774;2023-05-29T14:49:57;6.35;;;4.20;;
51828;SDS011;37881;48.024;8.774;2023-05-29T14:52:24;6.33;;;4.13;;
51828;SDS011;37881;48.024;8.774;2023-05-29T14:54:51;7.05;;;4.60;;
51828;SDS011;37881;48.024;8.774;2023-05-29T14:57:18;7.03;;;4.18;;
51828;SDS011;37881;48.024;8.774;2023-05-29T14:59:45;7.60;;;4.55;;
51828;SDS011;37881;48.024;8.774;2023-05-29T15:02:12;8.75;;;4.18;;
51828;SDS011;37881;48.024;8.774;2023-05-29T15:04:38;7.57;;;4.37;;
51828;SDS011;37881;48.024;8.774;2023-05-29T15:07:05;7.57;;;4.47;;
51828;SDS011;37881;48.024;8.774;2023-05-29T15:09:32;6.57;;;4.10;;
51828;SDS011;37881;48.024;8.774;2023-05-29T15:12:00;6.57;;;4.10;;
51828;SDS011;37881;48.024;8.774;2023-05-29T15:14:27;7.68;;;4.40;;
51828;SDS011;37881;48.024;8.774;2023-05-29T15:16:54;6.93;;;3.90;;
51828;SDS011;37881;48.024;8.774;2023-05-29T15:19:22;9.80;;;4.35;;